createdAt,value
2022-11-12T00:00:59.350Z,28.35
2022-11-12T00:03:26.879Z,28.95
2022-11-12T00:05:53.964Z,35.78
2022-11-12T00:08:21.121Z,46.08
2022-11-12T00:10:48.141Z,56.67
2022-11-12T00:13:15.310Z,53.60
2022-11-12T00:15:42.606Z,59.90
2022-11-12T00:18:09.780Z,94.40
2022-11-12T00:20:36.627Z,92.47
2022-11-12T00:23:03.538Z,69.20
2022-11-12T00:25:30.436Z,41.00
2022-11-12T00:28:10.867Z,40.17
2022-11-12T00:30:39.815Z,63.03
2022-11-12T00:33:06.912Z,59.42
2022-11-12T00:35:34.162Z,58.88
2022-11-12T00:38:01.605Z,48.55
2022-11-12T00:40:29.149Z,41.72
2022-11-12T00:42:56.173Z,37.38
2022-11-12T00:45:23.576Z,51.22
2022-11-12T00:47:50.516Z,39.00
2022-11-12T00:50:17.525Z,40.08
2022-11-12T00:52:44.360Z,80.68
2022-11-12T00:55:11.495Z,59.78
2022-11-12T00:57:38.347Z,176.27
2022-11-12T01:00:08.293Z,115.95
2022-11-12T01:02:42.369Z,100.68
2022-11-12T01:05:10.422Z,41.55
2022-11-12T01:07:37.226Z,22.42
2022-11-12T01:10:04.564Z,23.10
2022-11-12T01:12:32.207Z,45.45
2022-11-12T01:14:59.072Z,21.15
2022-11-12T01:17:25.906Z,19.08
2022-11-12T01:19:52.799Z,15.30
2022-11-12T01:22:19.633Z,18.15
2022-11-12T01:24:46.464Z,17.95
2022-11-12T01:27:13.278Z,17.08
2022-11-12T01:29:41.091Z,16.25
2022-11-12T01:32:08.240Z,15.55
2022-11-12T01:34:35.183Z,16.60
2022-11-12T01:37:01.976Z,14.38
2022-11-12T01:39:28.820Z,17.13
2022-11-12T01:41:55.720Z,15.05
2022-11-12T01:44:30.224Z,15.10
2022-11-12T01:47:18.397Z,17.48
2022-11-12T01:50:01.451Z,14.80
2022-11-12T01:52:41.872Z,14.85
2022-11-12T01:55:14.396Z,17.80
2022-11-12T01:57:47.298Z,14.80
2022-11-12T02:00:14.817Z,13.35
2022-11-12T02:02:46.259Z,15.10
2022-11-12T02:05:15.000Z,13.82
2022-11-12T02:07:43.998Z,17.17
2022-11-12T02:10:11.411Z,13.57
2022-11-12T02:12:57.282Z,15.95
2022-11-12T02:15:25.172Z,15.10
2022-11-12T02:17:52.160Z,15.57
2022-11-12T02:20:19.227Z,13.98
2022-11-12T02:22:46.111Z,14.38
2022-11-12T02:25:16.990Z,15.90
2022-11-12T02:27:45.191Z,15.13
2022-11-12T02:30:12.688Z,14.52
2022-11-12T02:32:39.548Z,14.00
2022-11-12T02:35:06.941Z,16.77
2022-11-12T02:37:33.845Z,13.95
2022-11-12T02:40:00.741Z,13.50
2022-11-12T02:42:27.579Z,12.32
2022-11-12T02:44:54.431Z,16.38
2022-11-12T02:47:21.226Z,14.52
2022-11-12T02:49:48.038Z,12.52
2022-11-12T02:52:14.816Z,14.65
2022-11-12T02:54:41.618Z,13.55
2022-11-12T02:57:08.398Z,17.67
2022-11-12T02:59:35.238Z,15.63
2022-11-12T03:02:02.043Z,14.50
2022-11-12T03:04:28.872Z,16.00
2022-11-12T03:06:55.691Z,15.60
2022-11-12T03:09:22.706Z,14.52
2022-11-12T03:11:49.552Z,16.45
2022-11-12T03:14:16.420Z,16.85
2022-11-12T03:16:43.184Z,17.00
2022-11-12T03:19:10.000Z,14.70
2022-11-12T03:21:36.822Z,16.58
2022-11-12T03:24:03.772Z,16.23
2022-11-12T03:26:35.472Z,21.60
2022-11-12T03:29:02.907Z,29.23
2022-11-12T03:31:29.878Z,45.22
2022-11-12T03:33:56.738Z,39.75
2022-11-12T03:36:23.537Z,41.03
2022-11-12T03:38:50.352Z,41.90
2022-11-12T03:41:17.138Z,47.15
2022-11-12T03:43:43.945Z,31.40
2022-11-12T03:46:10.791Z,49.33
2022-11-12T03:48:38.028Z,49.22
2022-11-12T03:51:05.071Z,39.20
2022-11-12T03:53:32.033Z,38.88
2022-11-12T03:55:58.851Z,78.60
2022-11-12T03:58:26.047Z,78.63
2022-11-12T04:00:53.117Z,79.45
2022-11-12T04:03:19.970Z,46.65
2022-11-12T04:06:05.451Z,100.13
2022-11-12T04:08:38.507Z,68.20
2022-11-12T04:11:12.872Z,96.88
2022-11-12T04:13:45.691Z,85.35
2022-11-12T04:16:37.427Z,96.70
2022-11-12T04:19:23.890Z,46.15
2022-11-12T04:21:58.195Z,98.40
2022-11-12T04:24:51.134Z,78.38
2022-11-12T04:27:23.836Z,39.35
2022-11-12T04:30:09.583Z,51.40
2022-11-12T04:32:45.401Z,86.85
2022-11-12T04:35:13.228Z,56.45
2022-11-12T04:37:46.541Z,167.73
2022-11-12T04:40:37.862Z,77.45
2022-11-12T04:43:25.225Z,85.35
2022-11-12T04:45:53.785Z,80.72
2022-11-12T04:48:22.211Z,128.70
2022-11-12T04:50:54.054Z,108.53
2022-11-12T04:53:20.875Z,107.22
2022-11-12T04:55:51.805Z,113.40
2022-11-12T04:58:19.399Z,129.00
2022-11-12T05:00:46.514Z,135.32
2022-11-12T05:03:13.295Z,90.38
2022-11-12T05:05:40.291Z,80.85
2022-11-12T05:08:07.178Z,95.07
2022-11-12T05:10:34.242Z,94.40
2022-11-12T05:13:01.120Z,96.57
2022-11-12T05:15:27.938Z,76.00
2022-11-12T05:17:54.890Z,81.45
2022-11-12T05:20:21.745Z,96.78
2022-11-12T05:23:05.033Z,34.05
2022-11-12T05:25:34.462Z,35.05
2022-11-12T05:28:01.264Z,51.47
2022-11-12T05:30:28.060Z,10.05
2022-11-12T05:32:54.909Z,21.50
2022-11-12T05:35:21.724Z,64.13
2022-11-12T05:37:48.514Z,57.75
2022-11-12T05:40:15.365Z,68.97
2022-11-12T05:42:42.141Z,65.68
2022-11-12T05:45:09.460Z,68.60
2022-11-12T05:47:36.273Z,48.22
2022-11-12T05:50:03.506Z,47.45
2022-11-12T05:52:30.314Z,37.85
2022-11-12T05:54:57.113Z,64.03
2022-11-12T05:57:23.909Z,34.38
2022-11-12T05:59:50.720Z,69.10
2022-11-12T06:02:17.653Z,90.70
2022-11-12T06:04:44.475Z,43.15
2022-11-12T06:07:11.415Z,72.40
2022-11-12T06:09:38.284Z,34.53
2022-11-12T06:12:06.836Z,24.98
2022-11-12T06:14:33.729Z,50.17
2022-11-12T06:17:00.510Z,40.70
2022-11-12T06:19:27.318Z,61.92
2022-11-12T06:21:54.138Z,33.25
2022-11-12T06:24:21.048Z,36.50
2022-11-12T06:26:47.842Z,51.53
2022-11-12T06:29:14.687Z,75.35
2022-11-12T06:31:41.478Z,56.35
2022-11-12T06:34:08.337Z,88.72
2022-11-12T06:36:35.775Z,60.28
2022-11-12T06:39:02.679Z,65.90
2022-11-12T06:41:29.502Z,85.78
2022-11-12T06:43:56.325Z,55.72
2022-11-12T06:46:23.092Z,53.90
2022-11-12T06:48:49.898Z,40.03
2022-11-12T06:51:19.846Z,51.88
2022-11-12T06:53:47.071Z,33.75
2022-11-12T06:56:15.253Z,41.70
2022-11-12T06:58:42.268Z,61.90
2022-11-12T07:01:14.712Z,52.97
2022-11-12T07:03:42.565Z,34.80
2022-11-12T07:06:12.200Z,47.22
2022-11-12T07:08:39.625Z,20.73
2022-11-12T07:11:07.319Z,68.60
2022-11-12T07:13:35.879Z,129.15
2022-11-12T07:16:04.786Z,57.65
2022-11-12T07:18:32.121Z,107.32
2022-11-12T07:21:03.118Z,196.35
2022-11-12T07:23:31.623Z,149.93
2022-11-12T07:26:04.758Z,69.28
2022-11-12T07:28:31.855Z,46.70
2022-11-12T07:31:03.766Z,59.47
2022-11-12T07:33:31.369Z,69.30
2022-11-12T07:36:06.971Z,66.57
2022-11-12T07:38:37.762Z,104.63
2022-11-12T07:41:14.752Z,116.55
2022-11-12T07:43:43.167Z,77.55
2022-11-12T07:46:24.874Z,94.20
2022-11-12T07:48:52.807Z,61.53
2022-11-12T07:51:23.767Z,64.85
2022-11-12T07:53:57.906Z,73.70
2022-11-12T07:56:27.637Z,127.78
2022-11-12T07:58:54.522Z,78.95
2022-11-12T08:01:34.114Z,54.30
2022-11-12T08:04:02.780Z,81.25
2022-11-12T08:06:30.840Z,114.03
2022-11-12T08:08:59.787Z,98.40
2022-11-12T08:11:26.872Z,34.22
2022-11-12T08:13:53.726Z,78.43
2022-11-12T08:16:20.563Z,82.45
2022-11-12T08:18:47.500Z,47.55
2022-11-12T08:21:16.216Z,54.63
2022-11-12T08:23:43.428Z,22.08
2022-11-12T08:26:13.227Z,21.10
2022-11-12T08:28:40.517Z,14.40
2022-11-12T08:31:19.367Z,61.92
2022-11-12T08:33:46.316Z,49.65
2022-11-12T08:36:15.160Z,21.92
2022-11-12T08:38:42.683Z,32.97
2022-11-12T08:41:12.055Z,30.40
2022-11-12T08:43:40.370Z,12.88
2022-11-12T08:46:07.401Z,23.05
2022-11-12T08:48:35.332Z,57.55
2022-11-12T08:51:05.014Z,61.05
2022-11-12T08:53:32.159Z,36.65
2022-11-12T08:55:59.394Z,52.22
2022-11-12T08:58:27.271Z,102.53
2022-11-12T09:00:55.139Z,15.82
2022-11-12T09:03:24.862Z,32.70
2022-11-12T09:05:53.142Z,62.83
2022-11-12T09:08:25.530Z,82.43
2022-11-12T09:10:52.766Z,18.98
2022-11-12T09:13:20.049Z,14.32
2022-11-12T09:15:47.564Z,64.28
2022-11-12T09:18:16.598Z,51.95
2022-11-12T09:20:45.339Z,32.75
2022-11-12T09:23:17.787Z,9.27
2022-11-12T09:25:45.289Z,17.63
2022-11-12T09:28:14.818Z,22.83
2022-11-12T09:30:48.188Z,12.55
2022-11-12T09:33:16.944Z,10.40
2022-11-12T09:35:45.641Z,11.80
2022-11-12T09:38:14.745Z,11.18
2022-11-12T09:41:00.525Z,9.05
2022-11-12T09:43:53.530Z,10.50
2022-11-12T09:46:35.321Z,8.93
2022-11-12T09:49:12.588Z,9.50
2022-11-12T09:51:56.818Z,8.80
2022-11-12T09:54:42.867Z,12.90
2022-11-12T09:57:13.280Z,8.70
2022-11-12T09:59:42.416Z,10.07
2022-11-12T10:02:15.315Z,9.15
2022-11-12T10:04:54.194Z,9.75
2022-11-12T10:07:31.467Z,10.20
2022-11-12T10:10:03.251Z,11.70
2022-11-12T10:12:57.698Z,13.10
2022-11-12T10:16:02.061Z,11.35
2022-11-12T10:18:54.157Z,14.00
2022-11-12T10:21:43.181Z,12.88
2022-11-12T10:24:11.560Z,16.17
2022-11-12T10:26:40.230Z,13.23
2022-11-12T10:29:31.540Z,13.43
2022-11-12T10:32:01.573Z,14.05
2022-11-12T10:34:31.221Z,16.17
2022-11-12T10:37:01.138Z,12.98
2022-11-12T10:39:44.173Z,11.93
2022-11-12T10:42:17.389Z,15.30
2022-11-12T10:44:45.365Z,12.40
2022-11-12T10:47:33.153Z,20.93
2022-11-12T10:50:16.522Z,15.60
2022-11-12T10:53:07.081Z,14.20
2022-11-12T10:55:36.958Z,15.10
2022-11-12T10:58:09.509Z,15.50
2022-11-12T11:00:57.396Z,15.67
2022-11-12T11:03:37.361Z,16.87
2022-11-12T11:06:16.415Z,15.90
2022-11-12T11:08:45.089Z,16.47
2022-11-12T11:11:25.538Z,14.40
2022-11-12T11:13:57.914Z,15.00
2022-11-12T11:16:27.739Z,15.00
2022-11-12T11:19:05.157Z,16.90
2022-11-12T11:21:50.434Z,16.97
2022-11-12T11:24:32.241Z,17.60
2022-11-12T11:27:28.622Z,16.40
2022-11-12T11:30:04.460Z,16.77
2022-11-12T11:32:37.394Z,15.23
2022-11-12T11:35:49.888Z,15.40
2022-11-12T11:38:25.953Z,15.53
2022-11-12T11:40:56.111Z,16.00
2022-11-12T11:43:50.371Z,16.40
2022-11-12T11:46:32.734Z,15.17
2022-11-12T11:49:13.168Z,17.70
2022-11-12T11:51:58.722Z,14.53
2022-11-12T11:54:40.469Z,16.70
2022-11-12T11:57:37.691Z,14.70
2022-11-12T12:00:30.578Z,15.77
2022-11-12T12:03:12.439Z,15.53
2022-11-12T12:06:09.809Z,17.00
2022-11-12T12:09:03.972Z,19.87
2022-11-12T12:11:41.006Z,15.63
2022-11-12T12:14:34.570Z,15.07
2022-11-12T12:17:25.606Z,15.50
2022-11-12T12:20:33.727Z,15.60
2022-11-12T12:23:05.949Z,14.40
2022-11-12T12:25:40.728Z,15.20
2022-11-12T12:28:17.613Z,14.73
2022-11-12T12:30:52.376Z,14.57
2022-11-12T12:33:25.271Z,15.13
2022-11-12T12:36:01.383Z,15.40
2022-11-12T12:38:59.582Z,14.93
2022-11-12T12:41:42.843Z,20.73
2022-11-12T12:44:11.084Z,18.10
2022-11-12T12:46:47.775Z,15.37
2022-11-12T12:49:34.442Z,14.50
2022-11-12T12:52:01.387Z,13.00
2022-11-12T12:54:51.395Z,13.97
2022-11-12T12:57:39.530Z,13.20
2022-11-12T13:00:49.922Z,13.03
2022-11-12T13:03:54.329Z,13.60
2022-11-12T13:06:23.820Z,14.80
2022-11-12T13:09:14.851Z,12.80
2022-11-12T13:12:01.588Z,14.03
2022-11-12T13:14:37.206Z,13.80
2022-11-12T13:17:03.983Z,14.03
2022-11-12T13:19:53.818Z,12.90
2022-11-12T13:22:20.609Z,12.30
2022-11-12T13:25:24.888Z,13.03
2022-11-12T13:27:51.662Z,13.80
2022-11-12T13:30:27.411Z,12.83
2022-11-12T13:32:55.786Z,12.27
2022-11-12T13:35:28.092Z,12.27
2022-11-12T13:38:12.893Z,14.10
2022-11-12T13:40:51.562Z,12.77
2022-11-12T13:43:31.464Z,11.63
2022-11-12T13:46:12.233Z,11.23
2022-11-12T13:49:09.357Z,19.30
2022-11-12T13:51:45.209Z,10.87
2022-11-12T13:54:38.564Z,12.03
2022-11-12T13:57:20.614Z,14.17
2022-11-12T13:59:47.749Z,10.07
2022-11-12T14:02:26.860Z,11.60
2022-11-12T14:04:54.575Z,11.70
2022-11-12T14:07:27.377Z,12.40
2022-11-12T14:10:34.611Z,13.00
2022-11-12T14:13:38.422Z,12.50
2022-11-12T14:16:30.293Z,12.37
2022-11-12T14:19:32.146Z,14.07
2022-11-12T14:22:15.582Z,13.50
2022-11-12T14:24:43.302Z,14.43
2022-11-12T14:27:39.358Z,13.20
2022-11-12T14:30:32.067Z,14.32
2022-11-12T14:33:01.227Z,15.30
2022-11-12T14:35:30.042Z,16.55
2022-11-12T14:38:11.150Z,19.85
2022-11-12T14:40:44.428Z,16.88
2022-11-12T14:43:27.273Z,15.57
2022-11-12T14:45:56.597Z,17.73
2022-11-12T14:48:23.571Z,17.55
2022-11-12T14:50:57.306Z,18.80
2022-11-12T14:53:47.548Z,19.85
2022-11-12T14:56:31.236Z,18.50
2022-11-12T14:59:01.508Z,20.05
2022-11-12T15:02:20.851Z,18.08
2022-11-12T15:04:24.844Z,17.95
2022-11-12T15:06:56.085Z,19.38
2022-11-12T15:09:34.660Z,16.85
2022-11-12T15:12:03.093Z,19.33
2022-11-12T15:14:30.157Z,18.20
2022-11-12T15:16:57.208Z,19.40
2022-11-12T15:19:28.687Z,16.90
2022-11-12T15:22:03.454Z,19.33
2022-11-12T15:24:34.606Z,19.67
2022-11-12T15:27:38.759Z,19.58
2022-11-12T15:30:26.298Z,19.67
2022-11-12T15:33:11.454Z,21.17
2022-11-12T15:35:44.148Z,19.35
2022-11-12T15:38:36.023Z,19.98
2022-11-12T15:41:02.988Z,23.38
2022-11-12T15:43:33.217Z,21.30
2022-11-12T15:46:00.249Z,19.77
2022-11-12T15:48:27.300Z,22.50
2022-11-12T15:50:55.289Z,19.77
2022-11-12T15:53:22.191Z,29.60
2022-11-12T15:55:50.213Z,21.95
2022-11-12T15:58:34.734Z,30.65
2022-11-12T16:01:02.200Z,23.85
2022-11-12T16:03:30.418Z,48.05
2022-11-12T16:05:57.701Z,38.70
2022-11-12T16:08:24.616Z,30.38
2022-11-12T16:10:51.471Z,34.50
2022-11-12T16:13:28.802Z,30.02
2022-11-12T16:15:56.078Z,38.60
2022-11-12T16:18:22.924Z,76.78
2022-11-12T16:20:50.260Z,68.38
2022-11-12T16:23:17.128Z,60.75
2022-11-12T16:25:45.097Z,59.65
2022-11-12T16:28:17.403Z,115.05
2022-11-12T16:30:45.525Z,62.67
2022-11-12T16:33:13.545Z,93.60
2022-11-12T16:35:40.790Z,65.93
2022-11-12T16:38:15.714Z,72.68
2022-11-12T16:40:43.942Z,61.60
2022-11-12T16:43:10.955Z,87.00
2022-11-12T16:45:43.089Z,137.07
2022-11-12T16:48:17.894Z,84.50
2022-11-12T16:50:44.782Z,70.90
2022-11-12T16:53:11.591Z,99.90
2022-11-12T16:55:38.412Z,67.50
2022-11-12T16:58:05.450Z,48.40
2022-11-12T17:00:32.305Z,67.85
2022-11-12T17:02:59.194Z,91.57
2022-11-12T17:05:26.286Z,79.93
2022-11-12T17:07:57.853Z,71.70
2022-11-12T17:10:25.433Z,65.38
2022-11-12T17:12:52.832Z,62.50
2022-11-12T17:15:19.971Z,60.00
2022-11-12T17:17:46.857Z,42.63
2022-11-12T17:20:14.147Z,50.38
2022-11-12T17:22:40.962Z,82.25
2022-11-12T17:25:08.554Z,66.53
2022-11-12T17:27:35.361Z,91.75
2022-11-12T17:30:03.025Z,141.38
2022-11-12T17:32:29.876Z,86.47
2022-11-12T17:34:56.962Z,96.30
2022-11-12T17:37:23.825Z,97.22
2022-11-12T17:39:50.890Z,79.88
2022-11-12T17:42:17.769Z,57.22
2022-11-12T17:44:46.218Z,101.40
2022-11-12T17:47:13.078Z,63.17
2022-11-12T17:49:39.947Z,43.63
2022-11-12T17:52:06.920Z,61.80
2022-11-12T17:54:34.531Z,35.67
2022-11-12T17:57:01.444Z,43.80
2022-11-12T17:59:28.247Z,49.92
2022-11-12T18:01:55.075Z,71.30
2022-11-12T18:04:23.745Z,65.22
2022-11-12T18:06:51.048Z,66.50
2022-11-12T18:09:17.975Z,36.53
2022-11-12T18:11:50.467Z,35.17
2022-11-12T18:14:17.471Z,126.72
2022-11-12T18:16:45.035Z,57.90
2022-11-12T18:19:12.811Z,83.25
2022-11-12T18:21:40.584Z,38.25
2022-11-12T18:24:11.914Z,72.93
2022-11-12T18:26:39.142Z,64.95
2022-11-12T18:29:07.330Z,69.40
2022-11-12T18:31:34.272Z,54.38
2022-11-12T18:34:01.129Z,42.30
2022-11-12T18:36:28.596Z,68.32
2022-11-12T18:38:56.316Z,33.78
2022-11-12T18:41:26.744Z,72.95
2022-11-12T18:43:54.307Z,40.40
2022-11-12T18:46:21.761Z,56.85
2022-11-12T18:48:49.123Z,49.10
2022-11-12T18:51:18.144Z,45.53
2022-11-12T18:53:46.182Z,44.72
2022-11-12T18:56:16.183Z,46.45
2022-11-12T18:58:43.262Z,59.75
2022-11-12T19:01:20.992Z,29.27
2022-11-12T19:03:51.617Z,50.17
2022-11-12T19:06:18.697Z,30.52
2022-11-12T19:08:45.585Z,45.85
2022-11-12T19:11:14.547Z,34.67
2022-11-12T19:13:42.446Z,46.55
2022-11-12T19:16:16.919Z,59.63
2022-11-12T19:18:44.718Z,33.17
2022-11-12T19:21:14.923Z,37.30
2022-11-12T19:23:43.044Z,31.45
2022-11-12T19:26:13.014Z,55.03
2022-11-12T19:28:40.467Z,39.47
2022-11-12T19:31:15.727Z,42.75
2022-11-12T19:33:42.927Z,41.42
2022-11-12T19:36:37.773Z,61.67
2022-11-12T19:39:04.551Z,48.90
2022-11-12T19:41:31.357Z,40.15
2022-11-12T19:43:58.184Z,52.15
2022-11-12T19:46:25.330Z,42.67
2022-11-12T19:48:52.168Z,55.05
2022-11-12T19:51:18.961Z,68.22
2022-11-12T19:53:45.827Z,76.35
2022-11-12T19:56:16.993Z,39.33
2022-11-12T19:58:48.175Z,46.17
2022-11-12T20:01:17.224Z,86.43
2022-11-12T20:03:44.430Z,49.45
2022-11-12T20:06:17.088Z,59.78
2022-11-12T20:08:43.937Z,43.33
2022-11-12T20:11:11.173Z,27.40
2022-11-12T20:13:38.351Z,47.00
2022-11-12T20:16:20.770Z,68.15
2022-11-12T20:18:54.373Z,33.40
2022-11-12T20:21:21.791Z,38.17
2022-11-12T20:23:48.594Z,45.63
2022-11-12T20:26:16.284Z,41.45
2022-11-12T20:28:43.829Z,34.45
2022-11-12T20:31:15.921Z,58.92
2022-11-12T20:33:43.039Z,79.30
2022-11-12T20:36:19.524Z,87.93
2022-11-12T20:38:47.705Z,65.30
2022-11-12T20:41:22.683Z,76.07
2022-11-12T20:43:53.551Z,102.70
2022-11-12T20:46:20.633Z,92.60
2022-11-12T20:48:47.438Z,84.65
2022-11-12T20:51:24.289Z,106.50
2022-11-12T20:53:59.879Z,74.00
2022-11-12T20:56:28.873Z,77.05
2022-11-12T20:58:56.340Z,77.95
2022-11-12T21:01:24.515Z,82.05
2022-11-12T21:03:52.124Z,117.25
2022-11-12T21:06:21.644Z,68.15
2022-11-12T21:08:48.907Z,74.00
2022-11-12T21:11:19.103Z,128.90
2022-11-12T21:13:45.977Z,94.57
2022-11-12T21:16:14.491Z,147.18
2022-11-12T21:18:41.895Z,104.07
2022-11-12T21:21:10.190Z,56.08
2022-11-12T21:23:38.632Z,76.05
2022-11-12T21:26:13.543Z,87.90
2022-11-12T21:28:48.961Z,83.32
2022-11-12T21:31:18.159Z,84.07
2022-11-12T21:33:48.389Z,90.13
2022-11-12T21:36:16.721Z,29.85
2022-11-12T21:38:44.402Z,81.22
2022-11-12T21:41:14.173Z,44.70
2022-11-12T21:43:45.943Z,50.50
2022-11-12T21:46:18.382Z,73.70
2022-11-12T21:48:46.176Z,85.70
2022-11-12T21:51:15.353Z,59.25
2022-11-12T21:53:45.703Z,85.57
2022-11-12T21:56:17.655Z,109.97
2022-11-12T21:58:45.167Z,76.00
2022-11-12T22:01:21.084Z,128.75
2022-11-12T22:03:49.707Z,72.45
2022-11-12T22:06:17.769Z,99.32
2022-11-12T22:08:45.205Z,78.95
2022-11-12T22:11:17.606Z,64.97
2022-11-12T22:13:44.973Z,88.68
2022-11-12T22:16:23.500Z,88.45
2022-11-12T22:18:52.923Z,43.83
2022-11-12T22:21:22.330Z,64.28
2022-11-12T22:23:49.418Z,81.50
2022-11-12T22:26:20.613Z,88.80
2022-11-12T22:28:47.667Z,32.47
2022-11-12T22:31:17.270Z,73.57
2022-11-12T22:33:44.119Z,42.97
2022-11-12T22:36:16.211Z,67.55
2022-11-12T22:38:45.766Z,107.43
2022-11-12T22:41:21.333Z,114.35
2022-11-12T22:43:49.926Z,67.65
2022-11-12T22:46:19.531Z,69.15
2022-11-12T22:48:46.403Z,64.90
2022-11-12T22:51:15.637Z,121.20
2022-11-12T22:53:43.021Z,185.93
2022-11-12T22:56:12.623Z,79.03
2022-11-12T22:58:41.098Z,84.72
2022-11-12T23:01:16.741Z,88.22
2022-11-12T23:03:43.933Z,50.75
2022-11-12T23:06:10.739Z,107.97
2022-11-12T23:08:37.551Z,75.28
2022-11-12T23:11:07.162Z,62.75
2022-11-12T23:13:34.762Z,73.65
2022-11-12T23:16:02.447Z,32.90
2022-11-12T23:18:30.192Z,38.85
2022-11-12T23:21:03.692Z,53.83
2022-11-12T23:23:30.605Z,45.08
2022-11-12T23:26:12.380Z,52.45
2022-11-12T23:28:39.265Z,38.22
2022-11-12T23:31:11.308Z,71.72
2022-11-12T23:33:38.645Z,48.00
2022-11-12T23:36:10.606Z,44.88
2022-11-12T23:38:37.594Z,56.22
2022-11-12T23:41:05.139Z,63.60
2022-11-12T23:43:32.093Z,48.92
2022-11-12T23:45:59.195Z,52.47
2022-11-12T23:48:27.225Z,77.68
2022-11-12T23:51:05.111Z,111.65
2022-11-12T23:53:34.563Z,106.78
2022-11-12T23:56:01.990Z,72.28
2022-11-12T23:58:29.172Z,104.18
